• Join FlightAware (Why Join?)
  • Login
  • US Flag 
07:45AM EDT


 

Airport Tracker/Info


-or-


 

Live Flight TrackerFlight Track Log ✈ N839CA ✈ 02-May-2013 ✈ KBWI - KEWR

Flight Track Log - Related Links

Times and Time Zones

All times are in EDT time to prevent confusion due to time zone crossing. See the N839CA flight status page for this flight to view local times or setup timezone preferences in your user account.

Time Position Orientation Groundspeed Altitude Reporting Facility
EDT Latitude Longitude Course Direction KTS MPH feet Rate Location/Type
06:50PM 39.1500 -76.6333 46° Northeast 151 174 1,700  Level Potomac TRACON
06:51PM 39.1500 -76.5667 90° East 167 192 2,900 1,380 Climbing Potomac TRACON
06:52PM 39.1500 -76.5167 90° East 160 184 4,500 1,260 Climbing Potomac TRACON
06:53PM 39.1500 -76.4500 90° East 166 191 5,500 1,020 Climbing Potomac TRACON
06:54PM 39.1667 -76.4000 67° East 182 209 6,600 1,140 Climbing Potomac TRACON
06:55PM 39.1815 -76.1843 21° North  Level FlightAware Approximate
06:55PM 39.2000 -76.3500 49° Northeast 180 207 7,800  Level Potomac TRACON
06:56PM 39.2302 -76.1264 46° Northeast  Level FlightAware Approximate
06:56PM 39.2333 -76.3000 49° Northeast 184 212 8,900  Level Potomac TRACON
06:57PM 39.2667 -76.2500 49° Northeast 186 214 10,000 1,080 Climbing Potomac TRACON
06:58PM 39.3000 -76.2000 49° Northeast 185 213 11,100 300 Climbing Potomac TRACON
07:00PM 39.3667 -76.1000 49° Northeast 241 277 11,000 -60 Descending Philadelphia TRACON
07:01PM 39.4167 -76.0167 52° Northeast 245 282 11,000  Level Philadelphia TRACON
07:02PM 39.4500 -75.9667 49° Northeast 247 284 11,000  Level Philadelphia TRACON
07:03PM 39.5000 -75.8833 52° Northeast 247 284 11,000  Level Philadelphia TRACON
07:04PM 39.5333 -75.8333 49° Northeast 248 285 11,000  Level Philadelphia TRACON
07:05PM 39.5833 -75.7500 52° Northeast 247 284 11,000  Level Philadelphia TRACON
07:06PM 39.6333 -75.6833 46° Northeast 249 287 11,000  Level Philadelphia TRACON
07:07PM 39.6833 -75.6167 46° Northeast 249 287 11,000  Level Philadelphia TRACON
07:08PM 39.7000 -75.5333 75° East 249 287 11,000  Level Philadelphia TRACON
07:09PM 39.7167 -75.4500 75° East 249 287 11,000  Level Philadelphia TRACON
07:10PM 39.7500 -75.3667 62° Northeast 250 288 11,000 -300 Level Philadelphia TRACON
07:11PM 39.7667 -75.2833 75° East 253 291 10,400 -540 Descending Philadelphia TRACON
07:12PM 39.8000 -75.1833 67° East 260 299 10,000 -240 Descending Philadelphia TRACON
07:13PM 39.8167 -75.1000 75° East 248 285 10,000 -120 Level Philadelphia TRACON
07:14PM 39.8500 -75.0167 62° Northeast 244 281 9,800 -480 Descending Philadelphia TRACON
07:15PM 39.8833 -74.9500 57° Northeast 258 297 9,000 -840 Descending Philadelphia TRACON
07:16PM 39.9333 -74.8833 46° Northeast 252 290 8,200 -900 Descending Philadelphia TRACON
07:17PM 39.9833 -74.8167 46° Northeast 246 283 7,400 -660 Descending Philadelphia TRACON
07:18PM 40.0167 -74.7667 49° Northeast 244 281 7,000 -240 Descending Philadelphia TRACON
07:19PM 40.0667 -74.7000 46° Northeast 235 270 7,000  Level New York TRACON
07:20PM 40.1167 -74.6333 46° Northeast 236 272 7,000  Level New York TRACON
07:21PM 40.1833 -74.6333 360° North 251 289 7,000  Level New York TRACON
07:22PM 40.2500 -74.6500 349° North 248 285 7,000 -660 Level New York TRACON
07:23PM 40.3167 -74.6500 360° North 260 299 5,800 -1,140 Descending New York TRACON
07:24PM 40.4000 -74.6667 351° North 260 299 4,800 -900 Descending New York TRACON
07:25PM 40.4667 -74.6500 11° North 248 285 4,000 -900 Descending New York TRACON
07:26PM 40.5333 -74.6500 360° North 250 288 3,100 -540 Descending New York TRACON
07:27PM 40.5833 -74.5833 45° Northeast 247 284 3,000 -60 Descending New York TRACON
07:28PM 40.6333 -74.5333 37° Northeast 248 285 3,000 -420 Level New York TRACON
07:29PM 40.6500 -74.4500 75° East 247 284 2,300 -540 Descending New York TRACON
07:30PM 40.6833 -74.3667 62° Northeast 222 255 2,000 -240 Descending New York TRACON
07:31PM 40.7000 -74.3000 72° East 188 216 1,900 -540 Descending New York TRACON
07:32PM 40.7000 -74.2500 90° East 147 169 1,000 -900 Descending New York TRACON
07:33PM 40.7000 -74.2000 90° East 133 153 300 -780 Descending New York TRACON